createdAt,value
2022-10-31T00:00:48.068Z,20.76
2022-10-31T00:03:14.742Z,20.67
2022-10-31T00:05:46.207Z,20.58
2022-10-31T00:08:12.708Z,20.51
2022-10-31T00:10:42.595Z,20.87
2022-10-31T00:13:10.686Z,20.43
2022-10-31T00:15:41.527Z,20.40
2022-10-31T00:18:09.851Z,20.28
2022-10-31T00:20:36.691Z,20.23
2022-10-31T00:23:05.088Z,20.18
2022-10-31T00:25:36.387Z,20.20
2022-10-31T00:28:04.083Z,20.11
2022-10-31T00:30:31.063Z,20.09
2022-10-31T00:32:58.150Z,20.06
2022-10-31T00:35:24.980Z,20.04
2022-10-31T00:37:51.572Z,20.03
2022-10-31T00:40:18.113Z,19.99
2022-10-31T00:42:44.576Z,20.40
2022-10-31T00:45:11.963Z,20.02
2022-10-31T00:47:38.663Z,19.96
2022-10-31T00:50:06.691Z,19.91
2022-10-31T00:52:33.232Z,19.88
2022-10-31T00:54:59.880Z,20.26
2022-10-31T00:57:26.359Z,19.86
2022-10-31T00:59:52.767Z,20.20
2022-10-31T01:02:19.868Z,19.79
2022-10-31T01:04:46.653Z,19.69
2022-10-31T01:07:15.021Z,20.03
2022-10-31T01:09:41.810Z,19.63
2022-10-31T01:12:09.079Z,19.56
2022-10-31T01:14:35.699Z,19.50
2022-10-31T01:17:02.137Z,19.45
2022-10-31T01:19:28.697Z,19.44
2022-10-31T01:21:55.642Z,19.80
2022-10-31T01:24:22.188Z,19.46
2022-10-31T01:26:48.614Z,19.80
2022-10-31T01:29:15.131Z,19.44
2022-10-31T01:31:41.560Z,19.78
2022-10-31T01:34:08.265Z,19.41
2022-10-31T01:36:37.433Z,19.38
2022-10-31T01:39:06.805Z,19.35
2022-10-31T01:41:39.053Z,19.35
2022-10-31T01:44:14.613Z,19.37
2022-10-31T01:46:55.497Z,19.34
2022-10-31T01:49:21.958Z,19.25
2022-10-31T01:51:59.823Z,19.31
2022-10-31T01:54:33.181Z,19.27
2022-10-31T01:57:00.937Z,19.19
2022-10-31T01:59:32.922Z,19.20
2022-10-31T02:01:59.631Z,19.11
2022-10-31T02:04:27.202Z,19.06
2022-10-31T02:07:08.386Z,19.11
2022-10-31T02:09:36.732Z,18.98
2022-10-31T02:12:04.611Z,18.96
2022-10-31T02:14:32.417Z,18.95
2022-10-31T02:16:59.077Z,18.94
2022-10-31T02:19:35.421Z,19.00
2022-10-31T02:22:21.314Z,19.05
2022-10-31T02:25:04.457Z,19.01
2022-10-31T02:27:46.991Z,18.92
2022-10-31T02:30:38.375Z,18.94
2022-10-31T02:33:23.310Z,18.74
2022-10-31T02:36:04.714Z,18.80
2022-10-31T02:38:45.076Z,18.74
2022-10-31T02:41:17.272Z,18.72
2022-10-31T02:43:49.580Z,18.65
2022-10-31T02:46:25.452Z,18.72
2022-10-31T02:48:56.621Z,18.71
2022-10-31T02:51:23.291Z,18.70
2022-10-31T02:53:49.823Z,18.72
2022-10-31T02:56:17.612Z,19.10
2022-10-31T02:58:52.017Z,19.17
2022-10-31T03:02:06.321Z,19.05
2022-10-31T03:04:54.887Z,18.96
2022-10-31T03:08:07.707Z,19.03
2022-10-31T03:10:43.188Z,18.82
2022-10-31T03:13:42.245Z,18.87
2022-10-31T03:16:12.306Z,18.79
2022-10-31T03:18:44.004Z,18.79
2022-10-31T03:21:17.647Z,18.78
2022-10-31T03:23:47.687Z,18.78
2022-10-31T03:26:16.483Z,18.77
2022-10-31T03:28:54.723Z,18.85
2022-10-31T03:31:27.579Z,18.80
2022-10-31T03:33:57.716Z,18.77
2022-10-31T03:36:24.879Z,18.74
2022-10-31T03:38:52.479Z,18.74
2022-10-31T03:41:22.746Z,18.75
2022-10-31T03:43:56.408Z,18.73
2022-10-31T03:46:23.936Z,18.68
2022-10-31T03:48:50.804Z,18.66
2022-10-31T03:51:30.492Z,18.75
2022-10-31T03:54:03.625Z,18.66
2022-10-31T03:56:48.748Z,18.74
2022-10-31T03:59:22.061Z,18.65
2022-10-31T04:01:53.712Z,18.63
2022-10-31T04:04:21.268Z,18.57
2022-10-31T04:06:50.056Z,18.56
2022-10-31T04:09:18.720Z,18.56
2022-10-31T04:11:50.313Z,18.56
2022-10-31T04:14:16.856Z,18.53
2022-10-31T04:16:44.637Z,18.90
2022-10-31T04:19:14.279Z,18.94
2022-10-31T04:21:40.916Z,18.56
2022-10-31T04:24:07.910Z,18.49
2022-10-31T04:26:34.445Z,18.45
2022-10-31T04:29:00.850Z,18.80
2022-10-31T04:31:27.507Z,18.45
2022-10-31T04:33:54.025Z,18.40
2022-10-31T04:36:20.436Z,18.74
2022-10-31T04:38:47.010Z,18.38
2022-10-31T04:41:13.407Z,18.70
2022-10-31T04:43:39.943Z,18.33
2022-10-31T04:46:06.375Z,18.65
2022-10-31T04:48:32.828Z,18.30
2022-10-31T04:51:01.282Z,18.25
2022-10-31T04:53:28.297Z,18.18
2022-10-31T04:55:54.811Z,18.15
2022-10-31T04:58:21.351Z,18.14
2022-10-31T05:00:47.972Z,18.12
2022-10-31T05:03:14.441Z,18.47
2022-10-31T05:05:40.953Z,18.09
2022-10-31T05:08:07.442Z,18.05
2022-10-31T05:10:34.003Z,18.00
2022-10-31T05:13:02.265Z,18.33
2022-10-31T05:15:29.715Z,17.95
2022-10-31T05:17:57.267Z,17.86
2022-10-31T05:20:28.771Z,17.83
2022-10-31T05:22:57.487Z,17.75
2022-10-31T05:25:27.260Z,17.70
2022-10-31T05:27:55.027Z,17.65
2022-10-31T05:30:24.366Z,17.63
2022-10-31T05:32:52.023Z,17.58
2022-10-31T05:35:22.474Z,17.60
2022-10-31T05:37:49.063Z,17.53
2022-10-31T05:40:16.652Z,17.91
2022-10-31T05:42:44.220Z,17.59
2022-10-31T05:45:13.445Z,17.53
2022-10-31T05:47:40.395Z,17.49
2022-10-31T05:50:08.632Z,17.48
2022-10-31T05:52:35.498Z,17.46
2022-10-31T05:55:02.050Z,17.44
2022-10-31T05:57:29.575Z,17.81
2022-10-31T05:59:56.011Z,17.49
2022-10-31T06:02:22.775Z,17.44
2022-10-31T06:04:49.275Z,17.40
2022-10-31T06:07:15.670Z,17.76
2022-10-31T06:09:42.229Z,17.42
2022-10-31T06:12:08.633Z,17.75
2022-10-31T06:14:35.119Z,17.43
2022-10-31T06:17:01.712Z,17.40
2022-10-31T06:19:28.063Z,17.74
2022-10-31T06:21:54.497Z,17.40
2022-10-31T06:24:20.987Z,17.38
2022-10-31T06:26:47.440Z,17.36
2022-10-31T06:29:13.858Z,17.34
2022-10-31T06:31:40.282Z,17.33
2022-10-31T06:34:06.755Z,17.31
2022-10-31T06:36:33.193Z,17.31
2022-10-31T06:38:59.623Z,17.30
2022-10-31T06:41:26.060Z,17.30
2022-10-31T06:43:52.500Z,17.29
2022-10-31T06:46:18.972Z,17.31
2022-10-31T06:48:45.403Z,17.33
2022-10-31T06:51:11.906Z,17.37
2022-10-31T06:53:38.345Z,17.44
2022-10-31T06:56:05.072Z,17.55
2022-10-31T06:58:31.526Z,17.68
2022-10-31T07:01:03.286Z,17.86
2022-10-31T07:03:29.776Z,18.00
2022-10-31T07:05:57.601Z,18.14
2022-10-31T07:08:24.961Z,18.29
2022-10-31T07:10:54.568Z,18.47
2022-10-31T07:13:26.418Z,18.60
2022-10-31T07:16:00.465Z,18.78
2022-10-31T07:18:27.076Z,18.87
2022-10-31T07:20:54.264Z,19.00
2022-10-31T07:23:20.841Z,19.10
2022-10-31T07:25:47.318Z,19.21
2022-10-31T07:28:13.715Z,19.59
2022-10-31T07:30:40.621Z,19.39
2022-10-31T07:33:07.497Z,19.45
2022-10-31T07:35:35.797Z,19.52
2022-10-31T07:38:10.253Z,19.67
2022-10-31T07:40:36.691Z,19.68
2022-10-31T07:43:03.173Z,20.05
2022-10-31T07:45:29.805Z,19.86
2022-10-31T07:47:56.364Z,19.92
2022-10-31T07:50:25.702Z,20.00
2022-10-31T07:53:24.803Z,20.23
2022-10-31T07:55:51.570Z,20.12
2022-10-31T07:58:18.574Z,20.17
2022-10-31T08:00:46.984Z,20.24
2022-10-31T08:03:16.365Z,20.31
2022-10-31T08:05:43.350Z,20.36
2022-10-31T08:08:10.193Z,20.41
2022-10-31T08:10:37.239Z,20.46
2022-10-31T08:13:06.536Z,20.54
2022-10-31T08:15:35.221Z,20.60
2022-10-31T08:18:03.369Z,20.65
2022-10-31T08:20:30.080Z,20.73
2022-10-31T08:23:01.723Z,20.83
2022-10-31T08:25:33.780Z,20.89
2022-10-31T08:28:04.200Z,20.96
2022-10-31T08:30:32.030Z,21.01
2022-10-31T08:33:05.697Z,21.13
2022-10-31T08:35:33.464Z,21.12
2022-10-31T08:38:00.603Z,21.19
2022-10-31T08:40:29.387Z,21.26
2022-10-31T08:43:00.176Z,21.36
2022-10-31T08:45:26.883Z,21.40
2022-10-31T08:47:53.452Z,21.46
2022-10-31T08:50:20.051Z,21.52
2022-10-31T08:53:04.258Z,21.57
2022-10-31T08:55:31.796Z,21.64
2022-10-31T08:57:59.178Z,21.70
2022-10-31T09:00:26.138Z,21.75
2022-10-31T09:02:59.808Z,21.86
2022-10-31T09:05:26.336Z,21.87
2022-10-31T09:07:57.322Z,21.95
2022-10-31T09:10:25.348Z,21.95
2022-10-31T09:13:05.141Z,22.06
2022-10-31T09:15:31.719Z,22.04
2022-10-31T09:17:58.348Z,22.08
2022-10-31T09:20:25.221Z,22.10
2022-10-31T09:22:59.418Z,22.20
2022-10-31T09:25:26.290Z,22.18
2022-10-31T09:27:57.019Z,22.26
2022-10-31T09:30:23.510Z,22.29
2022-10-31T09:32:56.626Z,22.40
2022-10-31T09:35:25.712Z,22.44
2022-10-31T09:38:24.381Z,22.65
2022-10-31T09:41:08.805Z,22.67
2022-10-31T09:43:54.010Z,22.75
2022-10-31T09:46:31.671Z,22.82
2022-10-31T09:49:04.250Z,22.81
2022-10-31T09:51:35.546Z,22.91
2022-10-31T09:54:15.638Z,22.99
2022-10-31T09:56:43.218Z,22.97
2022-10-31T09:59:21.935Z,23.09
2022-10-31T10:02:17.778Z,23.22
2022-10-31T10:04:52.525Z,23.21
2022-10-31T10:07:33.925Z,23.32
2022-10-31T10:10:03.344Z,23.35
2022-10-31T10:13:20.927Z,23.52
2022-10-31T10:15:58.643Z,23.55
2022-10-31T10:18:40.456Z,23.68
2022-10-31T10:21:40.760Z,23.79
2022-10-31T10:24:44.305Z,23.91
2022-10-31T10:27:28.310Z,23.95
2022-10-31T10:30:07.448Z,24.06
2022-10-31T10:32:49.262Z,24.18
2022-10-31T10:35:25.418Z,24.25
2022-10-31T10:38:05.233Z,24.39
2022-10-31T10:40:32.104Z,24.41
2022-10-31T10:43:23.821Z,24.56
2022-10-31T10:46:27.655Z,24.60
2022-10-31T10:49:10.135Z,24.80
2022-10-31T10:52:40.839Z,24.99
2022-10-31T10:55:26.282Z,25.00
2022-10-31T10:58:05.581Z,25.10
2022-10-31T11:00:37.000Z,25.12
2022-10-31T11:03:04.197Z,25.21
2022-10-31T11:05:43.212Z,25.35
2022-10-31T11:08:10.097Z,25.40
2022-10-31T11:10:36.645Z,25.49
2022-10-31T11:13:18.591Z,25.68
2022-10-31T11:16:01.567Z,25.80
2022-10-31T11:18:31.593Z,25.88
2022-10-31T11:21:00.898Z,25.97
2022-10-31T11:23:29.697Z,26.06
2022-10-31T11:26:07.609Z,26.19
2022-10-31T11:28:38.084Z,26.27
2022-10-31T11:31:14.841Z,26.43
2022-10-31T11:33:49.042Z,26.52
2022-10-31T11:36:37.102Z,26.68
2022-10-31T11:39:06.659Z,26.67
2022-10-31T11:41:36.892Z,26.74
2022-10-31T11:44:22.024Z,26.89
2022-10-31T11:46:51.552Z,26.84
2022-10-31T11:49:26.796Z,26.88
2022-10-31T11:51:56.736Z,26.86
2022-10-31T11:54:30.435Z,26.85
2022-10-31T11:56:57.424Z,26.81
2022-10-31T11:59:29.701Z,26.83
2022-10-31T12:01:58.419Z,26.77
2022-10-31T12:04:46.053Z,26.88
2022-10-31T12:07:12.591Z,26.72
2022-10-31T12:09:39.825Z,26.70
2022-10-31T12:12:14.821Z,26.69
2022-10-31T12:14:47.046Z,26.74
2022-10-31T12:17:21.067Z,26.76
2022-10-31T12:20:07.305Z,26.80
2022-10-31T12:23:09.273Z,26.92
2022-10-31T12:25:47.804Z,26.85
2022-10-31T12:28:31.025Z,26.82
2022-10-31T12:31:22.861Z,26.95
2022-10-31T12:34:22.422Z,26.94
2022-10-31T12:37:09.803Z,27.00
2022-10-31T12:40:08.137Z,27.09
2022-10-31T12:43:09.218Z,27.08
2022-10-31T12:45:48.242Z,27.05
2022-10-31T12:48:17.375Z,27.11
2022-10-31T12:51:15.062Z,27.22
2022-10-31T12:53:47.339Z,27.47
2022-10-31T12:56:22.173Z,27.28
2022-10-31T12:58:57.073Z,27.25
2022-10-31T13:01:30.639Z,27.25
2022-10-31T13:04:06.241Z,27.28
2022-10-31T13:06:44.298Z,27.25
2022-10-31T13:09:17.297Z,27.22
2022-10-31T13:11:52.946Z,27.21
2022-10-31T13:14:43.011Z,27.34
2022-10-31T13:17:21.790Z,27.25
2022-10-31T13:19:51.440Z,27.15
2022-10-31T13:22:22.576Z,27.15
2022-10-31T13:25:04.930Z,27.20
2022-10-31T13:27:42.748Z,27.10
2022-10-31T13:30:22.017Z,27.13
2022-10-31T13:33:01.099Z,27.03
2022-10-31T13:35:49.979Z,26.94
2022-10-31T13:38:38.700Z,26.96
2022-10-31T13:41:22.915Z,26.71
2022-10-31T13:44:03.709Z,26.72
2022-10-31T13:46:33.127Z,26.58
2022-10-31T13:48:59.899Z,26.45
2022-10-31T13:51:32.008Z,26.42
2022-10-31T13:53:58.529Z,26.28
2022-10-31T13:56:34.483Z,26.28
2022-10-31T13:59:10.011Z,26.23
2022-10-31T14:01:37.561Z,26.05
2022-10-31T14:04:19.239Z,26.06
2022-10-31T14:07:23.788Z,26.18
2022-10-31T14:09:57.389Z,25.95
2022-10-31T14:12:42.403Z,25.96
2022-10-31T14:15:19.414Z,25.80
2022-10-31T14:18:02.610Z,25.78
2022-10-31T14:20:58.552Z,25.78
2022-10-31T14:23:38.903Z,25.56
2022-10-31T14:26:08.168Z,25.40
2022-10-31T14:28:36.488Z,25.26
2022-10-31T14:31:03.060Z,25.16
2022-10-31T14:33:31.941Z,25.08
2022-10-31T14:36:36.847Z,25.19
2022-10-31T14:39:25.245Z,25.06
2022-10-31T14:42:19.121Z,24.93
2022-10-31T14:45:00.891Z,24.85
2022-10-31T14:47:42.493Z,24.69
2022-10-31T14:50:36.730Z,24.68
2022-10-31T14:53:06.272Z,24.44
2022-10-31T14:55:33.438Z,24.33
2022-10-31T14:58:07.013Z,24.33
2022-10-31T15:00:36.494Z,24.18
2022-10-31T15:03:22.955Z,24.23
2022-10-31T15:05:55.185Z,24.12
2022-10-31T15:08:33.473Z,24.10
2022-10-31T15:11:04.374Z,23.96
2022-10-31T15:13:30.878Z,23.83
2022-10-31T15:15:57.397Z,23.76
2022-10-31T15:18:29.595Z,23.77
2022-10-31T15:20:57.687Z,23.65
2022-10-31T15:23:29.942Z,23.66
2022-10-31T15:26:01.319Z,23.62
2022-10-31T15:28:28.592Z,23.52
2022-10-31T15:30:58.176Z,23.52
2022-10-31T15:33:27.857Z,23.48
2022-10-31T15:36:02.819Z,23.52
2022-10-31T15:38:30.543Z,23.40
2022-10-31T15:41:06.155Z,23.44
2022-10-31T15:43:38.989Z,23.39
2022-10-31T15:46:09.804Z,23.31
2022-10-31T15:48:36.528Z,23.22
2022-10-31T15:51:03.555Z,23.17
2022-10-31T15:53:38.835Z,23.20
2022-10-31T15:56:09.378Z,23.12
2022-10-31T15:58:45.119Z,23.11
2022-10-31T16:01:20.923Z,23.10
2022-10-31T16:03:59.823Z,23.09
2022-10-31T16:06:27.015Z,22.90
2022-10-31T16:08:53.546Z,22.86
2022-10-31T16:11:29.049Z,22.89
2022-10-31T16:14:05.647Z,22.82
2022-10-31T16:16:36.041Z,22.74
2022-10-31T16:19:05.525Z,22.67
2022-10-31T16:21:36.183Z,22.68
2022-10-31T16:24:26.040Z,22.80
2022-10-31T16:27:02.834Z,22.66
2022-10-31T16:29:49.793Z,22.74
2022-10-31T16:32:53.612Z,22.62
2022-10-31T16:35:25.880Z,22.53
2022-10-31T16:37:52.607Z,22.38
2022-10-31T16:40:19.344Z,22.31
2022-10-31T16:42:48.930Z,22.25
2022-10-31T16:45:19.374Z,22.25
2022-10-31T16:47:46.264Z,22.13
2022-10-31T16:50:20.867Z,22.16
2022-10-31T16:55:36.031Z,21.99
2022-10-31T16:58:03.059Z,21.92
2022-10-31T17:00:30.130Z,21.87
2022-10-31T17:02:57.733Z,21.82
2022-10-31T17:05:30.440Z,21.77
2022-10-31T17:07:58.211Z,21.73
2022-10-31T17:10:26.125Z,21.68
2022-10-31T17:12:53.426Z,21.65
2022-10-31T17:15:25.754Z,21.68
2022-10-31T17:17:52.898Z,21.59
2022-10-31T17:20:21.293Z,21.55
2022-10-31T17:22:48.021Z,21.51
2022-10-31T17:25:20.136Z,21.53
2022-10-31T17:27:47.473Z,21.44
2022-10-31T17:30:15.397Z,21.38
2022-10-31T17:32:42.745Z,21.34
2022-10-31T17:35:10.197Z,21.30
2022-10-31T17:37:36.938Z,21.26
2022-10-31T17:40:04.086Z,21.23
2022-10-31T17:42:30.756Z,21.20
2022-10-31T17:44:57.236Z,21.15
2022-10-31T17:47:23.752Z,21.55
2022-10-31T17:49:50.298Z,21.15
2022-10-31T17:52:16.735Z,21.07
2022-10-31T17:54:43.087Z,21.45
2022-10-31T17:57:09.708Z,21.03
2022-10-31T17:59:36.629Z,20.95
2022-10-31T18:02:08.756Z,20.89
2022-10-31T18:04:35.782Z,20.83
2022-10-31T18:07:02.648Z,20.76
2022-10-31T18:09:29.064Z,20.70
2022-10-31T18:11:55.612Z,20.65
2022-10-31T18:14:22.097Z,21.01
2022-10-31T18:16:48.593Z,20.57
2022-10-31T18:19:16.231Z,20.92
2022-10-31T18:21:43.020Z,20.49
2022-10-31T18:24:09.927Z,20.39
2022-10-31T18:26:37.103Z,20.32
2022-10-31T18:29:04.099Z,20.27
2022-10-31T18:31:30.535Z,20.24
2022-10-31T18:33:57.249Z,20.61
2022-10-31T18:36:25.003Z,20.22
2022-10-31T18:38:51.583Z,20.14
2022-10-31T18:41:18.053Z,20.11
2022-10-31T18:43:44.464Z,20.48
2022-10-31T18:46:14.117Z,20.13
2022-10-31T18:48:42.544Z,20.04
2022-10-31T18:51:11.660Z,20.01
2022-10-31T18:53:38.141Z,19.97
2022-10-31T18:56:08.566Z,20.34
2022-10-31T18:58:35.141Z,19.95
2022-10-31T19:01:05.865Z,20.32
2022-10-31T19:03:32.588Z,19.93
2022-10-31T19:05:59.025Z,19.86
2022-10-31T19:08:25.688Z,19.84
2022-10-31T19:10:52.257Z,19.80
2022-10-31T19:13:20.844Z,20.16
2022-10-31T19:15:47.357Z,19.79
2022-10-31T19:18:13.697Z,20.13
2022-10-31T19:20:40.237Z,19.75
2022-10-31T19:23:06.767Z,20.07
2022-10-31T19:25:33.295Z,19.71
2022-10-31T19:28:00.601Z,20.03
2022-10-31T19:30:27.306Z,19.65
2022-10-31T19:32:55.908Z,19.58
2022-10-31T19:35:22.327Z,19.52
2022-10-31T19:37:48.826Z,19.48
2022-10-31T19:40:15.142Z,19.83
2022-10-31T19:42:41.577Z,19.46
2022-10-31T19:45:08.214Z,19.40
2022-10-31T19:47:34.611Z,19.74
2022-10-31T19:50:01.054Z,19.37
2022-10-31T19:52:27.610Z,19.34
2022-10-31T19:54:54.058Z,19.67
2022-10-31T19:57:35.795Z,19.30
2022-10-31T20:00:07.644Z,19.24
2022-10-31T20:02:34.052Z,19.18
2022-10-31T20:05:01.858Z,19.15
2022-10-31T20:07:28.298Z,19.09
2022-10-31T20:09:54.789Z,19.06
2022-10-31T20:12:21.224Z,19.41
2022-10-31T20:14:49.589Z,19.07
2022-10-31T20:17:16.026Z,18.98
2022-10-31T20:19:42.470Z,19.30
2022-10-31T20:22:09.102Z,18.94
2022-10-31T20:24:35.859Z,18.87
2022-10-31T20:27:03.325Z,18.83
2022-10-31T20:29:29.780Z,18.75
2022-10-31T20:31:57.182Z,18.75
2022-10-31T20:34:23.601Z,18.70
2022-10-31T20:36:50.073Z,18.70
2022-10-31T20:39:16.656Z,18.68
2022-10-31T20:41:43.064Z,19.02
2022-10-31T20:44:09.540Z,18.67
2022-10-31T20:46:36.028Z,18.63
2022-10-31T20:49:02.474Z,18.60
2022-10-31T20:51:29.209Z,18.55
2022-10-31T20:53:57.178Z,18.52
2022-10-31T20:56:25.898Z,18.51
2022-10-31T20:58:54.556Z,18.49
2022-10-31T21:01:29.731Z,18.54
2022-10-31T21:03:56.814Z,18.45
2022-10-31T21:06:23.482Z,18.44
2022-10-31T21:08:50.777Z,18.44
2022-10-31T21:11:23.225Z,18.49
2022-10-31T21:13:50.782Z,18.42
2022-10-31T21:16:20.066Z,18.46
2022-10-31T21:18:49.209Z,18.43
2022-10-31T21:21:21.409Z,18.47
2022-10-31T21:23:48.620Z,18.41
2022-10-31T21:26:23.243Z,18.47
2022-10-31T21:28:52.054Z,18.41
2022-10-31T21:31:18.766Z,18.42
2022-10-31T21:33:46.521Z,18.42
2022-10-31T21:36:13.662Z,18.42
2022-10-31T21:38:40.714Z,18.39
2022-10-31T21:41:10.036Z,18.40
2022-10-31T21:43:38.266Z,18.38
2022-10-31T21:46:05.830Z,18.36
2022-10-31T21:48:33.210Z,18.35
2022-10-31T21:51:06.541Z,18.39
2022-10-31T21:53:51.458Z,18.30
2022-10-31T21:56:18.036Z,18.31
2022-10-31T21:58:44.706Z,18.67
2022-10-31T22:01:11.871Z,18.35
2022-10-31T22:03:40.280Z,18.34
2022-10-31T22:06:09.306Z,18.36
2022-10-31T22:08:36.395Z,18.37
2022-10-31T22:11:04.802Z,18.39
2022-10-31T22:13:32.574Z,18.40
2022-10-31T22:16:03.801Z,18.49
2022-10-31T22:18:30.352Z,18.47
2022-10-31T22:21:02.723Z,18.83
2022-10-31T22:23:29.386Z,18.57
2022-10-31T22:25:55.866Z,18.56
2022-10-31T22:28:22.331Z,18.92
2022-10-31T22:30:48.887Z,18.62
2022-10-31T22:33:15.292Z,18.96
2022-10-31T22:35:41.733Z,18.63
2022-10-31T22:38:08.175Z,18.60
2022-10-31T22:40:34.587Z,18.58
2022-10-31T22:43:01.282Z,18.57
2022-10-31T22:45:28.081Z,18.53
2022-10-31T22:47:54.419Z,18.89
2022-10-31T22:50:20.887Z,18.59
2022-10-31T22:52:47.336Z,18.58
2022-10-31T22:55:15.523Z,18.58
2022-10-31T22:57:41.953Z,18.58
2022-10-31T23:00:09.087Z,18.60
2022-10-31T23:02:35.742Z,18.57
2022-10-31T23:05:02.276Z,18.58
2022-10-31T23:07:32.906Z,18.96
2022-10-31T23:09:59.591Z,18.65
2022-10-31T23:12:44.636Z,18.64
2022-10-31T23:15:11.087Z,18.61
2022-10-31T23:17:39.090Z,18.60
2022-10-31T23:20:07.111Z,18.57
2022-10-31T23:22:33.573Z,18.56
2022-10-31T23:25:00.051Z,18.55
2022-10-31T23:27:27.116Z,18.54
2022-10-31T23:29:58.194Z,18.53
2022-10-31T23:32:29.621Z,18.50
2022-10-31T23:35:04.832Z,18.45
2022-10-31T23:37:34.749Z,18.39
